This is the latest recevied weather packets stored in our database for station/object DO7ZT-10. If no packets are shown the sender has not sent any weather packets the latest 10 day(s).
| Time | Temp. | Humidity | Pressure | Rain* | Wind** | Luminosity | Snow |
|---|---|---|---|---|---|---|---|
| 1788120126 | 18.33° C | 68% | 1015.1 hPa | - | - | - | - |
| 1788119225 | 18.33° C | 70% | 1015.1 hPa | - | - | - | - |
| 1788118325 | 18.33° C | 70% | 1015 hPa | - | - | - | - |
| 1788117425 | 18.33° C | 70% | 1015 hPa | - | - | - | - |
| 1788116525 | 18.89° C | 69% | 1015 hPa | - | - | - | - |
| 1788115625 | 18.89° C | 68% | 1014.8 hPa | - | - | - | - |
| 1788114725 | 19.44° C | 68% | 1014.7 hPa | - | - | - | - |
| 1788113825 | 20° C | 67% | 1014.7 hPa | - | - | - | - |
| 1788112925 | 20.56° C | 65% | 1014.5 hPa | - | - | - | - |
| 1788112025 | 21.67° C | 62% | 1014.4 hPa | - | - | - | - |
| 1788111125 | 22.78° C | 55% | 1014.3 hPa | - | - | - | - |
| 1788110225 | 23.33° C | 52% | 1014.2 hPa | - | - | - | - |
| 1788109325 | 23.89° C | 48% | 1014.1 hPa | - | - | - | - |
| 1788108425 | 24.44° C | 45% | 1014 hPa | - | - | - | - |
| 1788107525 | 25° C | 43% | 1014 hPa | - | - | - | - |
| 1788106624 | 25° C | 40% | 1013.8 hPa | - | - | - | - |
| 1788105724 | 25.56° C | 41% | 1013.8 hPa | - | - | - | - |
| 1788104824 | 25.56° C | 38% | 1013.8 hPa | - | - | - | - |
| 1788103924 | 25° C | 40% | 1014 hPa | - | - | - | - |
| 1788103024 | 26.11° C | 40% | 1014 hPa | - | - | - | - |
| 1788102124 | 26.11° C | 39% | 1013.9 hPa | - | - | - | - |
| 1788101224 | 26.11° C | 38% | 1014 hPa | - | - | - | - |
| 1788100324 | 26.11° C | 38% | 1013.9 hPa | - | - | - | - |
| 1788099424 | 26.11° C | 42% | 1014 hPa | - | - | - | - |
| 1788098524 | 26.11° C | 40% | 1014.1 hPa | - | - | - | - |
* Rain since midnight (hover to see other rain measurements)
** Current wind speed in m/s (hover to see current wind gust speed)